sensor_id;sensor_type;location;lat;lon;timestamp;pressure;altitude;pressure_sealevel;temperature;humidity
55217;BME280;41086;46.736;15.666;2024-01-30T00:02:25;100525.47;;;0.32;100.00
55217;BME280;41086;46.736;15.666;2024-01-30T00:04:52;100521.97;;;0.29;100.00
55217;BME280;41086;46.736;15.666;2024-01-30T00:07:19;100518.25;;;-0.09;100.00
55217;BME280;41086;46.736;15.666;2024-01-30T00:09:47;100525.06;;;-0.32;100.00
55217;BME280;41086;46.736;15.666;2024-01-30T00:12:14;100512.84;;;-0.36;100.00
55217;BME280;41086;46.736;15.666;2024-01-30T00:14:42;100526.94;;;-0.11;100.00
55217;BME280;41086;46.736;15.666;2024-01-30T00:17:11;100515.56;;;-0.19;100.00
55217;BME280;41086;46.736;15.666;2024-01-30T00:19:38;100508.72;;;-0.10;100.00
55217;BME280;41086;46.736;15.666;2024-01-30T00:22:05;100520.00;;;-0.11;100.00
55217;BME280;41086;46.736;15.666;2024-01-30T00:24:32;100523.44;;;-0.15;100.00
55217;BME280;41086;46.736;15.666;2024-01-30T00:26:59;100515.53;;;-0.26;100.00
55217;BME280;41086;46.736;15.666;2024-01-30T00:29:26;100523.25;;;-0.39;100.00
55217;BME280;41086;46.736;15.666;2024-01-30T00:31:57;100522.34;;;-0.46;100.00
55217;BME280;41086;46.736;15.666;2024-01-30T00:34:23;100519.50;;;-0.69;100.00
55217;BME280;41086;46.736;15.666;2024-01-30T00:36:50;100529.91;;;-0.71;100.00
55217;BME280;41086;46.736;15.666;2024-01-30T00:39:17;100532.56;;;-0.66;100.00
55217;BME280;41086;46.736;15.666;2024-01-30T00:41:46;100523.88;;;-0.67;100.00
55217;BME280;41086;46.736;15.666;2024-01-30T00:44:13;100523.91;;;-0.63;100.00
55217;BME280;41086;46.736;15.666;2024-01-30T00:46:40;100538.34;;;-0.95;100.00
55217;BME280;41086;46.736;15.666;2024-01-30T00:49:06;100519.91;;;-1.12;100.00
55217;BME280;41086;46.736;15.666;2024-01-30T00:51:33;100543.41;;;-1.07;100.00
55217;BME280;41086;46.736;15.666;2024-01-30T00:54:00;100536.69;;;-0.90;100.00
55217;BME280;41086;46.736;15.666;2024-01-30T00:56:27;100532.81;;;-1.22;100.00
55217;BME280;41086;46.736;15.666;2024-01-30T00:58:54;100528.84;;;-0.91;100.00
55217;BME280;41086;46.736;15.666;2024-01-30T01:01:21;100522.91;;;-0.78;100.00
55217;BME280;41086;46.736;15.666;2024-01-30T01:03:47;100519.47;;;-0.75;100.00
55217;BME280;41086;46.736;15.666;2024-01-30T01:06:15;100517.84;;;-0.62;100.00
55217;BME280;41086;46.736;15.666;2024-01-30T01:08:42;100507.34;;;-0.73;100.00
55217;BME280;41086;46.736;15.666;2024-01-30T01:11:09;100508.09;;;-0.83;100.00
55217;BME280;41086;46.736;15.666;2024-01-30T01:13:36;100505.38;;;-0.94;100.00
55217;BME280;41086;46.736;15.666;2024-01-30T01:16:03;100504.41;;;-1.04;100.00
55217;BME280;41086;46.736;15.666;2024-01-30T01:18:30;100507.81;;;-1.09;100.00
55217;BME280;41086;46.736;15.666;2024-01-30T01:20:57;100513.81;;;-1.15;100.00
55217;BME280;41086;46.736;15.666;2024-01-30T01:23:24;100505.03;;;-1.26;100.00
55217;BME280;41086;46.736;15.666;2024-01-30T01:25:51;100511.09;;;-1.27;100.00
55217;BME280;41086;46.736;15.666;2024-01-30T01:28:18;100505.75;;;-1.38;100.00
55217;BME280;41086;46.736;15.666;2024-01-30T01:30:45;100504.84;;;-1.43;100.00
55217;BME280;41086;46.736;15.666;2024-01-30T01:33:13;100505.19;;;-1.81;100.00
55217;BME280;41086;46.736;15.666;2024-01-30T01:35:41;100503.31;;;-1.91;100.00
55217;BME280;41086;46.736;15.666;2024-01-30T01:38:08;100502.56;;;-1.83;100.00
55217;BME280;41086;46.736;15.666;2024-01-30T01:40:36;100502.13;;;-1.51;100.00
55217;BME280;41086;46.736;15.666;2024-01-30T01:43:03;100500.47;;;-1.44;100.00
55217;BME280;41086;46.736;15.666;2024-01-30T01:45:31;100503.81;;;-1.53;100.00
55217;BME280;41086;46.736;15.666;2024-01-30T01:47:58;100503.81;;;-1.53;100.00
55217;BME280;41086;46.736;15.666;2024-01-30T01:50:25;100507.47;;;-1.39;100.00
55217;BME280;41086;46.736;15.666;2024-01-30T01:52:53;100504.13;;;-1.30;100.00
55217;BME280;41086;46.736;15.666;2024-01-30T01:55:21;100504.06;;;-1.35;100.00
55217;BME280;41086;46.736;15.666;2024-01-30T01:57:50;100504.13;;;-1.30;100.00
55217;BME280;41086;46.736;15.666;2024-01-30T02:00:17;100502.31;;;-1.36;100.00
55217;BME280;41086;46.736;15.666;2024-01-30T02:02:46;100503.03;;;-1.49;100.00
55217;BME280;41086;46.736;15.666;2024-01-30T02:05:15;100499.50;;;-1.52;100.00
55217;BME280;41086;46.736;15.666;2024-01-30T02:07:42;100501.19;;;-1.56;100.00
55217;BME280;41086;46.736;15.666;2024-01-30T02:10:10;100499.47;;;-1.57;100.00
55217;BME280;41086;46.736;15.666;2024-01-30T02:12:37;100502.84;;;-1.63;100.00
55217;BME280;41086;46.736;15.666;2024-01-30T02:15:05;100494.91;;;-1.72;100.00
55217;BME280;41086;46.736;15.666;2024-01-30T02:17:33;100501.22;;;-1.54;100.00
55217;BME280;41086;46.736;15.666;2024-01-30T02:20:01;100488.16;;;-1.58;100.00
55217;BME280;41086;46.736;15.666;2024-01-30T02:22:29;100496.72;;;-1.68;100.00
55217;BME280;41086;46.736;15.666;2024-01-30T02:24:56;100485.53;;;-1.62;100.00
55217;BME280;41086;46.736;15.666;2024-01-30T02:27:22;100476.63;;;-1.80;100.00
55217;BME280;41086;46.736;15.666;2024-01-30T02:29:49;100497.72;;;-1.57;100.00
55217;BME280;41086;46.736;15.666;2024-01-30T02:32:16;100495.09;;;-1.58;100.00
55217;BME280;41086;46.736;15.666;2024-01-30T02:34:43;100499.22;;;-1.75;100.00
55217;BME280;41086;46.736;15.666;2024-01-30T02:37:10;100503.47;;;-1.81;100.00
55217;BME280;41086;46.736;15.666;2024-01-30T02:39:37;100491.38;;;-1.79;100.00
55217;BME280;41086;46.736;15.666;2024-01-30T02:42:04;100487.94;;;-1.76;100.00
55217;BME280;41086;46.736;15.666;2024-01-30T02:44:31;100486.00;;;-1.91;100.00
55217;BME280;41086;46.736;15.666;2024-01-30T02:46:57;100480.97;;;-1.77;100.00
55217;BME280;41086;46.736;15.666;2024-01-30T02:49:24;100484.63;;;-1.64;100.00
55217;BME280;41086;46.736;15.666;2024-01-30T02:51:53;100459.34;;;-1.76;100.00
55217;BME280;41086;46.736;15.666;2024-01-30T02:54:20;100489.56;;;-1.83;100.00
55217;BME280;41086;46.736;15.666;2024-01-30T02:56:47;100497.34;;;-1.86;100.00
55217;BME280;41086;46.736;15.666;2024-01-30T02:59:15;100493.72;;;-1.97;100.00
55217;BME280;41086;46.736;15.666;2024-01-30T03:01:44;100480.94;;;-1.82;100.00
55217;BME280;41086;46.736;15.666;2024-01-30T03:04:12;100453.91;;;-1.94;100.00
55217;BME280;41086;46.736;15.666;2024-01-30T03:06:44;100483.53;;;-1.82;100.00
55217;BME280;41086;46.736;15.666;2024-01-30T03:09:12;100492.13;;;-1.86;100.00
55217;BME280;41086;46.736;15.666;2024-01-30T03:11:40;100480.03;;;-1.82;100.00
55217;BME280;41086;46.736;15.666;2024-01-30T03:14:07;100488.75;;;-1.82;100.00
55217;BME280;41086;46.736;15.666;2024-01-30T03:16:34;100483.34;;;-1.95;100.00
55217;BME280;41086;46.736;15.666;2024-01-30T03:19:01;100494.59;;;-1.98;100.00
55217;BME280;41086;46.736;15.666;2024-01-30T03:21:30;100486.50;;;-2.16;100.00
55217;BME280;41086;46.736;15.666;2024-01-30T03:23:57;100476.66;;;-2.37;100.00
55217;BME280;41086;46.736;15.666;2024-01-30T03:26:23;100475.00;;;-2.32;100.00
55217;BME280;41086;46.736;15.666;2024-01-30T03:28:50;100470.50;;;-2.44;100.00
55217;BME280;41086;46.736;15.666;2024-01-30T03:31:17;100475.22;;;-2.18;100.00
55217;BME280;41086;46.736;15.666;2024-01-30T03:33:44;100477.19;;;-2.02;100.00
55217;BME280;41086;46.736;15.666;2024-01-30T03:36:11;100476.72;;;-1.73;100.00
55217;BME280;41086;46.736;15.666;2024-01-30T03:38:38;100474.81;;;-1.85;100.00
55217;BME280;41086;46.736;15.666;2024-01-30T03:41:08;100471.28;;;-1.90;100.00
55217;BME280;41086;46.736;15.666;2024-01-30T03:43:36;100475.25;;;-2.17;100.00
55217;BME280;41086;46.736;15.666;2024-01-30T03:46:03;100466.09;;;-1.89;100.00
55217;BME280;41086;46.736;15.666;2024-01-30T03:48:30;100473.19;;;-1.79;100.00
55217;BME280;41086;46.736;15.666;2024-01-30T03:50:57;100473.06;;;-1.85;100.00
55217;BME280;41086;46.736;15.666;2024-01-30T03:53:24;100471.34;;;-1.86;100.00
55217;BME280;41086;46.736;15.666;2024-01-30T03:55:51;100464.28;;;-1.96;100.00
55217;BME280;41086;46.736;15.666;2024-01-30T03:58:18;100469.16;;;-2.19;100.00
55217;BME280;41086;46.736;15.666;2024-01-30T04:00:45;100458.00;;;-2.10;100.00
55217;BME280;41086;46.736;15.666;2024-01-30T04:03:12;100476.94;;;-2.17;100.00
55217;BME280;41086;46.736;15.666;2024-01-30T04:05:38;100468.41;;;-2.10;100.00
55217;BME280;41086;46.736;15.666;2024-01-30T04:08:05;100472.59;;;-2.20;100.00
55217;BME280;41086;46.736;15.666;2024-01-30T04:10:32;100470.94;;;-2.15;100.00
55217;BME280;41086;46.736;15.666;2024-01-30T04:12:59;100483.06;;;-2.15;100.00
55217;BME280;41086;46.736;15.666;2024-01-30T04:15:26;100471.91;;;-2.08;100.00
55217;BME280;41086;46.736;15.666;2024-01-30T04:17:53;100474.84;;;-1.82;100.00
55217;BME280;41086;46.736;15.666;2024-01-30T04:20:20;100474.00;;;-1.81;100.00
55217;BME280;41086;46.736;15.666;2024-01-30T04:22:47;100466.09;;;-1.89;100.00
55217;BME280;41086;46.736;15.666;2024-01-30T04:25:14;100477.97;;;-2.08;100.00
55217;BME280;41086;46.736;15.666;2024-01-30T04:27:41;100466.94;;;-1.91;100.00
55217;BME280;41086;46.736;15.666;2024-01-30T04:30:08;100472.03;;;-1.99;100.00
55217;BME280;41086;46.736;15.666;2024-01-30T04:32:35;100472.09;;;-1.94;100.00
55217;BME280;41086;46.736;15.666;2024-01-30T04:35:03;100464.28;;;-1.96;100.00
55217;BME280;41086;46.736;15.666;2024-01-30T04:37:36;100473.84;;;-1.93;100.00
55217;BME280;41086;46.736;15.666;2024-01-30T04:40:03;100470.28;;;-2.00;100.00
55217;BME280;41086;46.736;15.666;2024-01-30T04:42:32;100466.53;;;-2.20;100.00
55217;BME280;41086;46.736;15.666;2024-01-30T04:44:59;100469.78;;;-2.35;100.00
55217;BME280;41086;46.736;15.666;2024-01-30T04:47:25;100465.47;;;-2.33;100.00
55217;BME280;41086;46.736;15.666;2024-01-30T04:49:52;100479.41;;;-2.27;100.00
55217;BME280;41086;46.736;15.666;2024-01-30T04:52:20;100473.28;;;-2.32;100.00
55217;BME280;41086;46.736;15.666;2024-01-30T04:54:47;100468.09;;;-2.33;100.00
55217;BME280;41086;46.736;15.666;2024-01-30T04:57:14;100404.94;;;-2.85;100.00
55217;BME280;41086;46.736;15.666;2024-01-30T04:59:41;100469.59;;;-2.46;100.00
55217;BME280;41086;46.736;15.666;2024-01-30T05:02:08;100431.28;;;-2.61;100.00
55217;BME280;41086;46.736;15.666;2024-01-30T05:04:35;100469.94;;;-2.78;100.00
55217;BME280;41086;46.736;15.666;2024-01-30T05:07:02;100460.09;;;-2.97;100.00
55217;BME280;41086;46.736;15.666;2024-01-30T05:09:29;100468.75;;;-2.97;100.00
55217;BME280;41086;46.736;15.666;2024-01-30T05:11:59;100471.91;;;-3.13;100.00
55217;BME280;41086;46.736;15.666;2024-01-30T05:14:26;100481.41;;;-3.14;100.00
55217;BME280;41086;46.736;15.666;2024-01-30T05:16:53;100476.94;;;-3.21;100.00
55217;BME280;41086;46.736;15.666;2024-01-30T05:19:20;100484.47;;;-3.35;100.00
55217;BME280;41086;46.736;15.666;2024-01-30T05:21:50;100488.75;;;-3.37;100.00
55217;BME280;41086;46.736;15.666;2024-01-30T05:24:17;100485.75;;;-3.58;100.00
55217;BME280;41086;46.736;15.666;2024-01-30T05:26:46;100481.81;;;-3.39;100.00
55217;BME280;41086;46.736;15.666;2024-01-30T05:29:14;100492.50;;;-3.21;100.00
55217;BME280;41086;46.736;15.666;2024-01-30T05:31:41;100487.19;;;-3.28;100.00
55217;BME280;41086;46.736;15.666;2024-01-30T05:34:08;100487.00;;;-3.39;100.00
55217;BME280;41086;46.736;15.666;2024-01-30T05:36:35;100478.38;;;-3.37;100.00
55217;BME280;41086;46.736;15.666;2024-01-30T05:39:02;100493.47;;;-3.17;100.00
55217;BME280;41086;46.736;15.666;2024-01-30T05:41:32;100495.88;;;-3.26;100.00
55217;BME280;41086;46.736;15.666;2024-01-30T05:43:59;100495.66;;;-3.37;100.00
55217;BME280;41086;46.736;15.666;2024-01-30T05:46:26;100485.34;;;-3.34;100.00
55217;BME280;41086;46.736;15.666;2024-01-30T05:48:53;100487.63;;;-3.05;100.00
55217;BME280;41086;46.736;15.666;2024-01-30T05:51:19;100489.16;;;-2.68;100.00
55217;BME280;41086;46.736;15.666;2024-01-30T05:53:46;100495.66;;;-2.41;100.00
55217;BME280;41086;46.736;15.666;2024-01-30T05:56:13;100499.41;;;-2.22;100.00
55217;BME280;41086;46.736;15.666;2024-01-30T05:58:40;100499.75;;;-2.54;100.00
55217;BME280;41086;46.736;15.666;2024-01-30T06:01:07;100496.13;;;-2.65;100.00
55217;BME280;41086;46.736;15.666;2024-01-30T06:03:35;100495.31;;;-2.61;100.00
55217;BME280;41086;46.736;15.666;2024-01-30T06:06:02;100500.91;;;-2.88;100.00
55217;BME280;41086;46.736;15.666;2024-01-30T06:08:29;100494.53;;;-3.06;100.00
55217;BME280;41086;46.736;15.666;2024-01-30T06:10:55;100499.63;;;-3.12;100.00
55217;BME280;41086;46.736;15.666;2024-01-30T06:13:22;100500.50;;;-3.10;100.00
55217;BME280;41086;46.736;15.666;2024-01-30T06:15:49;100503.28;;;-3.01;100.00
55217;BME280;41086;46.736;15.666;2024-01-30T06:18:16;100495.66;;;-2.93;100.00
55217;BME280;41086;46.736;15.666;2024-01-30T06:20:43;100493.44;;;-2.70;100.00
55217;BME280;41086;46.736;15.666;2024-01-30T06:23:10;100499.53;;;-2.68;100.00
55217;BME280;41086;46.736;15.666;2024-01-30T06:25:36;100496.09;;;-2.67;100.00
55217;BME280;41086;46.736;15.666;2024-01-30T06:28:03;100510.66;;;-2.75;100.00
55217;BME280;41086;46.736;15.666;2024-01-30T06:30:30;100509.63;;;-2.85;100.00
55217;BME280;41086;46.736;15.666;2024-01-30T06:32:57;100504.88;;;-2.60;100.00
55217;BME280;41086;46.736;15.666;2024-01-30T06:35:24;100499.69;;;-2.59;100.00
55217;BME280;41086;46.736;15.666;2024-01-30T06:37:51;100501.22;;;-2.70;99.89
55217;BME280;41086;46.736;15.666;2024-01-30T06:40:18;100506.84;;;-2.96;100.00
55217;BME280;41086;46.736;15.666;2024-01-30T06:42:45;100514.63;;;-2.94;100.00
55217;BME280;41086;46.736;15.666;2024-01-30T06:45:11;100512.38;;;-2.76;100.00
55217;BME280;41086;46.736;15.666;2024-01-30T06:47:38;100510.16;;;-2.54;100.00
55217;BME280;41086;46.736;15.666;2024-01-30T06:50:05;100510.34;;;-2.42;100.00
55217;BME280;41086;46.736;15.666;2024-01-30T06:52:32;100511.28;;;-2.37;100.00
55217;BME280;41086;46.736;15.666;2024-01-30T06:54:59;100516.91;;;-2.11;100.00
55217;BME280;41086;46.736;15.666;2024-01-30T06:57:26;100522.38;;;-1.91;100.00
55217;BME280;41086;46.736;15.666;2024-01-30T06:59:57;100517.34;;;-1.82;100.00
55217;BME280;41086;46.736;15.666;2024-01-30T07:02:24;100515.91;;;-1.58;100.00
55217;BME280;41086;46.736;15.666;2024-01-30T07:04:50;100520.16;;;-1.63;98.25
55217;BME280;41086;46.736;15.666;2024-01-30T07:07:17;100517.56;;;-1.63;98.43
55217;BME280;41086;46.736;15.666;2024-01-30T07:09:44;100514.00;;;-1.70;95.85
55217;BME280;41086;46.736;15.666;2024-01-30T07:12:11;100513.69;;;-1.93;96.94
55217;BME280;41086;46.736;15.666;2024-01-30T07:14:38;100499.47;;;-2.19;98.09
55217;BME280;41086;46.736;15.666;2024-01-30T07:17:05;100504.53;;;-2.27;100.00
55217;BME280;41086;46.736;15.666;2024-01-30T07:19:32;100507.91;;;-2.33;100.00
55217;BME280;41086;46.736;15.666;2024-01-30T07:21:59;100515.66;;;-2.34;100.00
55217;BME280;41086;46.736;15.666;2024-01-30T07:24:26;100514.47;;;-2.00;100.00
55217;BME280;41086;46.736;15.666;2024-01-30T07:26:53;100524.22;;;-1.84;100.00
55217;BME280;41086;46.736;15.666;2024-01-30T07:29:20;100517.31;;;-1.83;100.00
55217;BME280;41086;46.736;15.666;2024-01-30T07:31:46;100517.47;;;-1.71;100.00
55217;BME280;41086;46.736;15.666;2024-01-30T07:34:13;100522.06;;;-1.50;100.00
55217;BME280;41086;46.736;15.666;2024-01-30T07:36:40;100520.59;;;-1.28;100.00
55217;BME280;41086;46.736;15.666;2024-01-30T07:39:07;100516.19;;;-1.34;100.00
55217;BME280;41086;46.736;15.666;2024-01-30T07:41:34;100515.19;;;-1.46;100.00
55217;BME280;41086;46.736;15.666;2024-01-30T07:44:01;100508.34;;;-1.40;100.00
55217;BME280;41086;46.736;15.666;2024-01-30T07:46:27;100522.16;;;-1.42;100.00
55217;BME280;41086;46.736;15.666;2024-01-30T07:48:54;100526.34;;;-1.55;100.00
55217;BME280;41086;46.736;15.666;2024-01-30T07:51:22;100521.50;;;-1.27;100.00
55217;BME280;41086;46.736;15.666;2024-01-30T07:53:52;100525.19;;;-1.08;100.00
55217;BME280;41086;46.736;15.666;2024-01-30T07:56:18;100524.28;;;-1.10;100.00
55217;BME280;41086;46.736;15.666;2024-01-30T07:58:45;100520.88;;;-1.03;100.00
55217;BME280;41086;46.736;15.666;2024-01-30T08:01:12;100521.91;;;-0.91;100.00
55217;BME280;41086;46.736;15.666;2024-01-30T08:03:39;100520.53;;;-0.53;100.00
55217;BME280;41086;46.736;15.666;2024-01-30T08:06:08;100516.50;;;-0.14;100.00
55217;BME280;41086;46.736;15.666;2024-01-30T08:08:35;100528.97;;;0.31;100.00
55217;BME280;41086;46.736;15.666;2024-01-30T08:11:01;100530.84;;;0.61;100.00
55217;BME280;41086;46.736;15.666;2024-01-30T08:13:28;100510.84;;;0.62;100.00
55217;BME280;41086;46.736;15.666;2024-01-30T08:15:55;100526.59;;;0.89;100.00
55217;BME280;41086;46.736;15.666;2024-01-30T08:18:22;100526.69;;;1.23;100.00
55217;BME280;41086;46.736;15.666;2024-01-30T08:20:49;100524.09;;;1.14;100.00
55217;BME280;41086;46.736;15.666;2024-01-30T08:23:16;100517.16;;;1.59;100.00
55217;BME280;41086;46.736;15.666;2024-01-30T08:25:42;100518.03;;;1.70;100.00
55217;BME280;41086;46.736;15.666;2024-01-30T08:28:09;100517.13;;;2.07;100.00
55217;BME280;41086;46.736;15.666;2024-01-30T08:30:36;100523.16;;;2.46;100.00
55217;BME280;41086;46.736;15.666;2024-01-30T08:33:05;100522.88;;;3.05;100.00
55217;BME280;41086;46.736;15.666;2024-01-30T08:35:32;100522.59;;;3.53;100.00
55217;BME280;41086;46.736;15.666;2024-01-30T08:38:00;100522.16;;;4.04;99.22
55217;BME280;41086;46.736;15.666;2024-01-30T08:40:27;100525.28;;;4.41;97.54
55217;BME280;41086;46.736;15.666;2024-01-30T08:42:55;100521.31;;;4.82;88.75
55217;BME280;41086;46.736;15.666;2024-01-30T08:45:22;100514.00;;;5.04;82.13
55217;BME280;41086;46.736;15.666;2024-01-30T08:47:49;100513.59;;;5.31;81.53
55217;BME280;41086;46.736;15.666;2024-01-30T08:50:16;100521.00;;;5.65;79.07
55217;BME280;41086;46.736;15.666;2024-01-30T08:52:43;100527.69;;;5.85;74.47
55217;BME280;41086;46.736;15.666;2024-01-30T08:55:13;100526.50;;;6.06;73.41
55217;BME280;41086;46.736;15.666;2024-01-30T08:57:40;100524.44;;;6.21;70.95
55217;BME280;41086;46.736;15.666;2024-01-30T09:00:07;100519.47;;;6.06;67.99
55217;BME280;41086;46.736;15.666;2024-01-30T09:02:35;100522.03;;;6.11;67.70
55217;BME280;41086;46.736;15.666;2024-01-30T09:05:03;100533.16;;;6.25;68.13
55217;BME280;41086;46.736;15.666;2024-01-30T09:07:30;100523.16;;;6.42;67.24
55217;BME280;41086;46.736;15.666;2024-01-30T09:09:57;100520.34;;;6.53;66.85
55217;BME280;41086;46.736;15.666;2024-01-30T09:12:24;100521.75;;;6.70;64.25
55217;BME280;41086;46.736;15.666;2024-01-30T09:14:51;100523.97;;;6.91;65.90
55217;BME280;41086;46.736;15.666;2024-01-30T09:17:17;100524.94;;;6.87;62.74
55217;BME280;41086;46.736;15.666;2024-01-30T09:19:45;100526.69;;;6.86;63.35
55217;BME280;41086;46.736;15.666;2024-01-30T09:22:14;100520.34;;;6.53;58.47
55217;BME280;41086;46.736;15.666;2024-01-30T09:24:41;100522.59;;;6.72;62.54
55217;BME280;41086;46.736;15.666;2024-01-30T09:27:07;100519.25;;;6.63;59.10
55217;BME280;41086;46.736;15.666;2024-01-30T09:29:34;100513.56;;;6.83;59.98
55217;BME280;41086;46.736;15.666;2024-01-30T09:32:04;100514.41;;;6.40;62.30
55217;BME280;41086;46.736;15.666;2024-01-30T09:34:31;100508.03;;;6.07;62.71
55217;BME280;41086;46.736;15.666;2024-01-30T09:36:59;100518.94;;;5.83;63.75
55217;BME280;41086;46.736;15.666;2024-01-30T09:39:26;100503.03;;;5.89;65.03
55217;BME280;41086;46.736;15.666;2024-01-30T09:42:26;100508.16;;;5.99;63.92
55217;BME280;41086;46.736;15.666;2024-01-30T09:44:54;100512.38;;;6.10;65.57
55217;BME280;41086;46.736;15.666;2024-01-30T09:47:22;100517.78;;;6.49;65.65
55217;BME280;41086;46.736;15.666;2024-01-30T09:49:49;100519.53;;;6.93;64.76
55217;BME280;41086;46.736;15.666;2024-01-30T09:52:17;100506.75;;;7.14;62.81
55217;BME280;41086;46.736;15.666;2024-01-30T09:54:45;100508.13;;;7.31;62.43
55217;BME280;41086;46.736;15.666;2024-01-30T09:57:12;100501.16;;;7.66;61.55
55217;BME280;41086;46.736;15.666;2024-01-30T09:59:38;100499.31;;;8.04;60.18
55217;BME280;41086;46.736;15.666;2024-01-30T10:02:06;100503.09;;;8.28;58.00
55217;BME280;41086;46.736;15.666;2024-01-30T10:04:34;100502.22;;;8.60;57.24
55217;BME280;41086;46.736;15.666;2024-01-30T10:07:02;100503.16;;;8.89;56.40
55217;BME280;41086;46.736;15.666;2024-01-30T10:09:32;100493.84;;;9.05;55.18
55217;BME280;41086;46.736;15.666;2024-01-30T10:12:01;100507.66;;;9.15;53.68
55217;BME280;41086;46.736;15.666;2024-01-30T10:14:27;100488.97;;;9.21;53.94
55217;BME280;41086;46.736;15.666;2024-01-30T10:16:55;100492.44;;;9.23;53.81
55217;BME280;41086;46.736;15.666;2024-01-30T10:19:22;100499.00;;;9.38;52.70
55217;BME280;41086;46.736;15.666;2024-01-30T10:21:49;100498.22;;;9.63;52.00
55217;BME280;41086;46.736;15.666;2024-01-30T10:24:16;100489.47;;;9.87;53.20
55217;BME280;41086;46.736;15.666;2024-01-30T10:26:44;100492.84;;;10.17;50.92
55217;BME280;41086;46.736;15.666;2024-01-30T10:29:10;100491.09;;;10.43;49.91
55217;BME280;41086;46.736;15.666;2024-01-30T10:31:37;100481.94;;;10.52;50.24
55217;BME280;41086;46.736;15.666;2024-01-30T10:34:04;100479.72;;;10.39;50.71
55217;BME280;41086;46.736;15.666;2024-01-30T10:36:46;100476.28;;;10.61;50.04
55217;BME280;41086;46.736;15.666;2024-01-30T10:39:17;100460.69;;;10.53;49.49
55217;BME280;41086;46.736;15.666;2024-01-30T10:41:44;100456.13;;;10.57;50.10
55217;BME280;41086;46.736;15.666;2024-01-30T10:44:18;100457.97;;;10.78;50.31
55217;BME280;41086;46.736;15.666;2024-01-30T10:46:51;100458.50;;;11.10;49.03
55217;BME280;41086;46.736;15.666;2024-01-30T10:49:23;100457.06;;;11.01;49.36
55217;BME280;41086;46.736;15.666;2024-01-30T10:51:52;100462.03;;;11.11;49.12
55217;BME280;41086;46.736;15.666;2024-01-30T10:54:20;100454.56;;;11.20;48.02
55217;BME280;41086;46.736;15.666;2024-01-30T10:56:47;100442.06;;;11.24;48.79
55217;BME280;41086;46.736;15.666;2024-01-30T10:59:15;100439.44;;;11.44;48.07
55217;BME280;41086;46.736;15.666;2024-01-30T11:01:42;100440.78;;;11.54;46.64
55217;BME280;41086;46.736;15.666;2024-01-30T11:04:09;100420.47;;;11.53;46.83
55217;BME280;41086;46.736;15.666;2024-01-30T11:06:42;100420.22;;;11.60;46.82
55217;BME280;41086;46.736;15.666;2024-01-30T11:09:12;100424.22;;;11.70;46.80
55217;BME280;41086;46.736;15.666;2024-01-30T11:14:16;100416.25;;;11.70;48.55
55217;BME280;41086;46.736;15.666;2024-01-30T11:16:43;100399.69;;;10.99;47.96
55217;BME280;41086;46.736;15.666;2024-01-30T11:19:12;100396.03;;;11.23;49.16
55217;BME280;41086;46.736;15.666;2024-01-30T11:21:42;100407.16;;;11.33;49.34
55217;BME280;41086;46.736;15.666;2024-01-30T11:24:09;100387.63;;;11.34;48.44
55217;BME280;41086;46.736;15.666;2024-01-30T11:26:36;100398.66;;;11.45;48.51
55217;BME280;41086;46.736;15.666;2024-01-30T11:29:03;100396.22;;;11.41;47.57
55217;BME280;41086;46.736;15.666;2024-01-30T11:31:31;100392.78;;;11.17;46.52
55217;BME280;41086;46.736;15.666;2024-01-30T11:33:59;100387.31;;;11.42;48.38
55217;BME280;41086;46.736;15.666;2024-01-30T11:36:27;100393.44;;;11.64;47.72
55217;BME280;41086;46.736;15.666;2024-01-30T11:38:55;100388.13;;;11.44;47.77
55217;BME280;41086;46.736;15.666;2024-01-30T11:41:22;100392.72;;;11.61;48.62
55217;BME280;41086;46.736;15.666;2024-01-30T11:43:53;100385.63;;;11.82;47.51
55217;BME280;41086;46.736;15.666;2024-01-30T11:46:20;100379.28;;;12.06;47.59
55217;BME280;41086;46.736;15.666;2024-01-30T11:48:47;100377.66;;;12.02;47.96
55217;BME280;41086;46.736;15.666;2024-01-30T11:51:15;100381.25;;;12.22;47.23
55217;BME280;41086;46.736;15.666;2024-01-30T11:53:41;100369.63;;;12.24;47.19
55217;BME280;41086;46.736;15.666;2024-01-30T11:56:08;100359.34;;;12.35;47.57
55217;BME280;41086;46.736;15.666;2024-01-30T11:58:35;100369.06;;;12.55;47.08
55217;BME280;41086;46.736;15.666;2024-01-30T12:01:02;100374.56;;;12.51;48.46
55217;BME280;41086;46.736;15.666;2024-01-30T12:03:29;100356.72;;;12.91;46.49
55217;BME280;41086;46.736;15.666;2024-01-30T12:05:57;100359.31;;;13.11;46.05
55217;BME280;41086;46.736;15.666;2024-01-30T12:08:27;100359.16;;;13.14;45.77
55217;BME280;41086;46.736;15.666;2024-01-30T12:10:57;100355.03;;;12.33;46.07
55217;BME280;41086;46.736;15.666;2024-01-30T12:13:32;100352.88;;;12.41;47.10
55217;BME280;41086;46.736;15.666;2024-01-30T12:16:00;100343.81;;;12.64;46.81
55217;BME280;41086;46.736;15.666;2024-01-30T12:18:27;100331.81;;;12.74;47.19
55217;BME280;41086;46.736;15.666;2024-01-30T12:20:58;100336.25;;;13.10;46.76
55217;BME280;41086;46.736;15.666;2024-01-30T12:23:29;100336.06;;;13.32;45.19
55217;BME280;41086;46.736;15.666;2024-01-30T12:25:57;100331.88;;;13.63;44.57
55217;BME280;41086;46.736;15.666;2024-01-30T12:28:24;100339.38;;;13.72;44.18
55217;BME280;41086;46.736;15.666;2024-01-30T12:30:55;100325.88;;;13.75;43.60
55217;BME280;41086;46.736;15.666;2024-01-30T12:33:26;100332.59;;;13.49;44.37
55217;BME280;41086;46.736;15.666;2024-01-30T12:35:53;100334.28;;;13.50;43.14
55217;BME280;41086;46.736;15.666;2024-01-30T12:38:29;100328.81;;;13.36;44.19
55217;BME280;41086;46.736;15.666;2024-01-30T12:40:56;100329.72;;;13.35;44.87